createdAt,value
2022-11-05T00:00:51.650Z,15.09
2022-11-05T00:02:11.490Z,15.10
2022-11-05T00:03:31.392Z,14.99
2022-11-05T00:04:51.540Z,15.04
2022-11-05T00:06:12.664Z,15.04
2022-11-05T00:07:40.874Z,15.04
2022-11-05T00:09:01.111Z,15.12
2022-11-05T00:10:07.180Z,15.13
2022-11-05T00:11:16.839Z,15.12
2022-11-05T00:12:38.275Z,15.13
2022-11-05T00:13:58.410Z,15.15
2022-11-05T00:15:18.365Z,15.11
2022-11-05T00:16:38.366Z,15.06
2022-11-05T00:17:40.855Z,15.08
2022-11-05T00:18:42.414Z,15.06
2022-11-05T00:19:43.935Z,15.09
2022-11-05T00:20:45.486Z,15.09
2022-11-05T00:22:05.815Z,15.07
2022-11-05T00:23:25.627Z,15.00
2022-11-05T00:24:46.090Z,14.72
2022-11-05T00:26:04.580Z,14.69
2022-11-05T00:27:06.368Z,14.72
2022-11-05T00:28:07.865Z,14.68
2022-11-05T00:29:09.384Z,14.58
2022-11-05T00:30:12.185Z,14.49
2022-11-05T00:31:14.501Z,14.49
2022-11-05T00:32:16.013Z,14.49
2022-11-05T00:33:17.614Z,14.48
2022-11-05T00:34:19.107Z,14.40
2022-11-05T00:35:22.556Z,14.36
2022-11-05T00:36:24.107Z,14.39
2022-11-05T00:37:28.123Z,14.36
2022-11-05T00:38:30.524Z,14.41
2022-11-05T00:39:32.054Z,14.48
2022-11-05T00:40:33.601Z,14.52
2022-11-05T00:41:35.126Z,14.52
2022-11-05T00:42:55.304Z,14.49
2022-11-05T00:44:15.437Z,14.50
2022-11-05T00:45:17.091Z,14.57
2022-11-05T00:46:18.607Z,14.60
2022-11-05T00:47:38.519Z,14.57
2022-11-05T00:48:58.341Z,14.59
2022-11-05T00:49:59.889Z,14.63
2022-11-05T00:51:01.523Z,14.58
2022-11-05T00:52:21.838Z,14.53
2022-11-05T00:53:23.667Z,14.52
2022-11-05T00:54:25.181Z,14.58
2022-11-05T00:55:33.390Z,14.67
2022-11-05T00:56:34.907Z,14.73
2022-11-05T00:57:36.430Z,14.72
2022-11-05T00:58:38.143Z,14.77
2022-11-05T00:59:39.662Z,14.81
2022-11-05T01:00:43.913Z,14.90
2022-11-05T01:01:45.536Z,14.98
2022-11-05T01:02:47.300Z,15.04
2022-11-05T01:03:51.669Z,15.12
2022-11-05T01:04:53.600Z,15.16
2022-11-05T01:06:05.522Z,15.19
2022-11-05T01:07:07.019Z,15.20
2022-11-05T01:08:09.819Z,15.23
2022-11-05T01:09:11.407Z,15.27
2022-11-05T01:10:13.213Z,15.31
2022-11-05T01:11:35.275Z,15.31
2022-11-05T01:12:36.828Z,15.23
2022-11-05T01:13:40.356Z,15.21
2022-11-05T01:14:41.966Z,15.18
2022-11-05T01:15:43.666Z,15.24
2022-11-05T01:16:45.553Z,15.27
2022-11-05T01:17:47.626Z,15.28
2022-11-05T01:18:49.131Z,15.20
2022-11-05T01:19:51.201Z,15.29
2022-11-05T01:20:53.129Z,15.32
2022-11-05T01:21:54.663Z,15.28
2022-11-05T01:22:56.198Z,15.27
2022-11-05T01:23:57.738Z,15.26
2022-11-05T01:24:59.485Z,15.30
2022-11-05T01:26:01.007Z,15.33
2022-11-05T01:27:02.504Z,15.32
2022-11-05T01:28:04.762Z,15.31
2022-11-05T01:29:06.295Z,15.33
2022-11-05T01:30:08.715Z,15.34
2022-11-05T01:31:10.328Z,15.35
2022-11-05T01:32:11.858Z,15.40
2022-11-05T01:33:13.627Z,15.39
2022-11-05T01:34:15.358Z,15.41
2022-11-05T01:35:18.039Z,15.42
2022-11-05T01:36:19.574Z,15.43
2022-11-05T01:37:21.123Z,15.41
2022-11-05T01:38:22.731Z,15.42
2022-11-05T01:39:24.287Z,15.41
2022-11-05T01:40:26.497Z,15.42
2022-11-05T01:41:28.054Z,15.39
2022-11-05T01:42:33.084Z,15.21
2022-11-05T01:43:56.440Z,14.89
2022-11-05T01:45:20.141Z,14.83
2022-11-05T01:46:26.782Z,14.81
2022-11-05T01:47:46.594Z,14.90
2022-11-05T01:48:51.746Z,14.96
2022-11-05T01:49:53.940Z,14.92
2022-11-05T01:51:01.230Z,14.98
2022-11-05T01:52:04.812Z,15.04
2022-11-05T01:53:26.447Z,15.09
2022-11-05T01:54:32.111Z,15.12
2022-11-05T01:55:37.045Z,15.15
2022-11-05T01:56:43.682Z,15.17
2022-11-05T01:57:45.381Z,15.07
2022-11-05T01:58:59.295Z,14.97
2022-11-05T02:00:02.183Z,14.82
2022-11-05T02:01:03.763Z,14.88
2022-11-05T02:02:07.813Z,14.94
2022-11-05T02:03:10.125Z,14.90
2022-11-05T02:04:17.729Z,14.93
2022-11-05T02:05:19.363Z,14.83
2022-11-05T02:06:21.529Z,14.73
2022-11-05T02:07:26.240Z,14.66
2022-11-05T02:08:57.115Z,14.54
2022-11-05T02:10:08.182Z,14.51
2022-11-05T02:11:13.159Z,14.53
2022-11-05T02:12:14.999Z,14.57
2022-11-05T02:13:17.015Z,14.55
2022-11-05T02:14:21.795Z,14.40
2022-11-05T02:15:55.793Z,14.48
2022-11-05T02:17:36.103Z,14.58
2022-11-05T02:18:53.018Z,14.63
2022-11-05T02:20:39.592Z,14.61
2022-11-05T02:21:59.279Z,14.52
2022-11-05T02:23:22.546Z,14.54
2022-11-05T02:24:48.863Z,14.60
2022-11-05T02:26:18.280Z,14.61
2022-11-05T02:27:22.116Z,14.64
2022-11-05T02:29:05.217Z,14.64
2022-11-05T02:30:07.336Z,14.64
2022-11-05T02:31:17.598Z,14.68
2022-11-05T02:32:40.658Z,14.71
2022-11-05T02:33:56.635Z,14.65
2022-11-05T02:35:26.990Z,14.61
2022-11-05T02:36:49.418Z,14.62
2022-11-05T02:38:02.459Z,14.64
2022-11-05T02:39:25.179Z,14.50
2022-11-05T02:40:57.870Z,14.40
2022-11-05T02:42:38.194Z,14.39
2022-11-05T02:43:51.510Z,14.22
2022-11-05T02:44:58.950Z,14.18
2022-11-05T02:46:21.512Z,14.25
2022-11-05T02:47:33.184Z,14.19
2022-11-05T02:48:40.674Z,14.05
2022-11-05T02:49:45.263Z,13.92
2022-11-05T02:50:54.636Z,13.82
2022-11-05T02:52:04.283Z,13.73
2022-11-05T02:53:20.201Z,13.67
2022-11-05T02:54:29.021Z,13.60
2022-11-05T02:55:59.508Z,13.62
2022-11-05T02:57:03.763Z,13.67
2022-11-05T02:58:06.125Z,13.66
2022-11-05T02:59:07.730Z,13.68
2022-11-05T03:00:45.554Z,13.57
2022-11-05T03:01:48.593Z,13.56
2022-11-05T03:02:50.337Z,13.49
2022-11-05T03:03:55.825Z,13.57
2022-11-05T03:04:57.860Z,13.51
2022-11-05T03:06:10.679Z,13.44
2022-11-05T03:07:29.192Z,13.38
2022-11-05T03:08:45.855Z,13.43
2022-11-05T03:09:59.523Z,13.48
2022-11-05T03:11:17.733Z,13.51
2022-11-05T03:12:34.030Z,13.55
2022-11-05T03:13:54.057Z,13.58
2022-11-05T03:15:16.567Z,13.70
2022-11-05T03:16:42.361Z,13.80
2022-11-05T03:17:49.457Z,13.87
2022-11-05T03:19:12.890Z,13.97
2022-11-05T03:20:33.077Z,13.98
2022-11-05T03:21:54.884Z,13.93
2022-11-05T03:23:10.046Z,13.86
2022-11-05T03:24:26.533Z,13.69
2022-11-05T03:25:30.440Z,13.68
2022-11-05T03:26:41.529Z,13.71
2022-11-05T03:27:47.830Z,13.56
2022-11-05T03:29:16.582Z,13.43
2022-11-05T03:30:19.852Z,13.32
2022-11-05T03:31:23.538Z,13.26
2022-11-05T03:32:27.347Z,13.20
2022-11-05T03:33:31.404Z,13.20
2022-11-05T03:34:38.896Z,13.14
2022-11-05T03:35:46.536Z,13.01
2022-11-05T03:36:52.295Z,12.92
2022-11-05T03:38:00.469Z,12.90
2022-11-05T03:39:07.839Z,13.01
2022-11-05T03:40:12.205Z,13.10
2022-11-05T03:41:16.334Z,13.14
2022-11-05T03:42:21.400Z,13.20
2022-11-05T03:43:27.501Z,13.20
2022-11-05T03:44:34.555Z,13.15
2022-11-05T03:45:44.562Z,13.13
2022-11-05T03:46:49.439Z,12.99
2022-11-05T03:47:55.508Z,13.01
2022-11-05T03:49:01.740Z,13.02
2022-11-05T03:50:20.324Z,12.86
2022-11-05T03:51:43.986Z,12.74
2022-11-05T03:52:53.498Z,12.69
2022-11-05T03:54:00.197Z,12.81
2022-11-05T03:55:01.937Z,12.86
2022-11-05T03:56:10.535Z,12.94
2022-11-05T03:57:22.392Z,13.05
2022-11-05T03:58:34.725Z,13.05
2022-11-05T03:59:42.830Z,12.99
2022-11-05T04:00:44.680Z,12.95
2022-11-05T04:01:48.051Z,12.89
2022-11-05T04:02:50.381Z,12.90
2022-11-05T04:03:51.961Z,12.89
2022-11-05T04:04:54.866Z,12.86
2022-11-05T04:06:15.240Z,12.82
2022-11-05T04:07:35.827Z,12.87
2022-11-05T04:08:55.980Z,12.99
2022-11-05T04:10:16.380Z,12.90
2022-11-05T04:11:36.797Z,12.75
2022-11-05T04:12:57.068Z,12.76
2022-11-05T04:13:58.582Z,12.73
2022-11-05T04:15:00.227Z,12.70
2022-11-05T04:16:39.871Z,12.69
2022-11-05T04:17:41.375Z,12.61
2022-11-05T04:18:43.392Z,12.60
2022-11-05T04:20:04.354Z,12.58
2022-11-05T04:21:25.818Z,12.57
2022-11-05T04:22:48.503Z,12.53
2022-11-05T04:24:08.511Z,12.52
2022-11-05T04:25:10.910Z,12.49
2022-11-05T04:26:12.414Z,12.55
2022-11-05T04:27:13.943Z,12.63
2022-11-05T04:28:15.859Z,12.67
2022-11-05T04:29:36.017Z,12.69
2022-11-05T04:30:37.584Z,12.73
2022-11-05T04:31:39.122Z,12.62
2022-11-05T04:32:40.647Z,12.59
2022-11-05T04:33:42.195Z,12.60
2022-11-05T04:34:43.728Z,12.58
2022-11-05T04:35:49.287Z,12.54
2022-11-05T04:36:52.418Z,12.51
2022-11-05T04:37:54.074Z,12.46
2022-11-05T04:38:56.059Z,12.42
2022-11-05T04:39:57.647Z,12.40
2022-11-05T04:41:13.339Z,12.38
2022-11-05T04:42:14.897Z,12.47
2022-11-05T04:43:19.356Z,12.49
2022-11-05T04:44:21.160Z,12.44
2022-11-05T04:45:24.713Z,12.38
2022-11-05T04:46:26.271Z,12.35
2022-11-05T04:47:27.927Z,12.34
2022-11-05T04:48:30.087Z,12.38
2022-11-05T04:49:31.599Z,12.40
2022-11-05T04:50:33.213Z,12.45
2022-11-05T04:51:34.806Z,12.48
2022-11-05T04:52:36.462Z,12.44
2022-11-05T04:53:37.955Z,12.41
2022-11-05T04:54:39.546Z,12.39
2022-11-05T04:55:41.064Z,12.42
2022-11-05T04:56:42.583Z,12.43
2022-11-05T04:57:47.963Z,12.43
2022-11-05T04:58:49.917Z,12.32
2022-11-05T04:59:52.184Z,12.27
2022-11-05T05:00:53.730Z,12.31
2022-11-05T05:01:55.355Z,12.34
2022-11-05T05:02:56.947Z,12.38
2022-11-05T05:03:58.463Z,12.33
2022-11-05T05:05:00.152Z,12.36
2022-11-05T05:06:04.020Z,12.37
2022-11-05T05:07:05.917Z,12.33
2022-11-05T05:08:07.432Z,12.31
2022-11-05T05:09:08.950Z,12.37
2022-11-05T05:10:14.235Z,12.40
2022-11-05T05:11:18.295Z,12.39
2022-11-05T05:12:19.976Z,12.41
2022-11-05T05:13:21.668Z,12.42
2022-11-05T05:14:23.289Z,12.41
2022-11-05T05:15:24.818Z,12.46
2022-11-05T05:16:27.297Z,12.50
2022-11-05T05:17:28.957Z,12.60
2022-11-05T05:18:30.447Z,12.69
2022-11-05T05:19:51.939Z,12.72
2022-11-05T05:21:16.767Z,12.81
2022-11-05T05:22:18.294Z,12.90
2022-11-05T05:23:19.828Z,12.83
2022-11-05T05:24:21.690Z,12.85
2022-11-05T05:25:23.337Z,12.84
2022-11-05T05:26:24.938Z,12.88
2022-11-05T05:27:31.102Z,12.89
2022-11-05T05:28:32.692Z,12.91
2022-11-05T05:29:34.203Z,12.91
2022-11-05T05:30:35.702Z,12.97
2022-11-05T05:31:37.961Z,13.02
2022-11-05T05:32:39.470Z,13.00
2022-11-05T05:33:41.240Z,12.94
2022-11-05T05:34:42.861Z,12.99
2022-11-05T05:35:44.375Z,13.03
2022-11-05T05:36:45.962Z,13.02
2022-11-05T05:37:47.475Z,13.06
2022-11-05T05:38:49.049Z,13.07
2022-11-05T05:39:50.659Z,13.02
2022-11-05T05:40:52.250Z,12.98
2022-11-05T05:41:54.124Z,12.92
2022-11-05T05:42:55.986Z,12.89
2022-11-05T05:43:57.537Z,12.87
2022-11-05T05:44:59.059Z,12.85
2022-11-05T05:46:05.191Z,12.78
2022-11-05T05:47:06.762Z,12.75
2022-11-05T05:48:08.342Z,12.83
2022-11-05T05:49:12.661Z,12.85
2022-11-05T05:50:14.384Z,12.91
2022-11-05T05:51:16.214Z,12.94
2022-11-05T05:52:17.932Z,12.96
2022-11-05T05:53:19.459Z,12.85
2022-11-05T05:54:26.311Z,12.80
2022-11-05T05:55:30.707Z,12.82
2022-11-05T05:56:32.233Z,12.95
2022-11-05T05:57:34.310Z,13.05
2022-11-05T05:58:39.268Z,13.06
2022-11-05T05:59:40.803Z,13.07
2022-11-05T06:00:42.327Z,13.12
2022-11-05T06:01:44.020Z,13.18
2022-11-05T06:02:45.740Z,13.29
2022-11-05T06:03:48.733Z,13.33
2022-11-05T06:04:50.305Z,13.34
2022-11-05T06:05:51.810Z,13.39
2022-11-05T06:06:53.299Z,13.39
2022-11-05T06:07:56.415Z,13.43
2022-11-05T06:08:57.979Z,13.40
2022-11-05T06:09:59.528Z,13.46
2022-11-05T06:11:02.209Z,13.50
2022-11-05T06:12:04.025Z,13.56
2022-11-05T06:13:05.565Z,13.61
2022-11-05T06:14:10.377Z,13.74
2022-11-05T06:15:11.932Z,13.82
2022-11-05T06:16:13.564Z,13.88
2022-11-05T06:17:15.191Z,13.90
2022-11-05T06:18:16.687Z,13.82
2022-11-05T06:19:18.217Z,13.79
2022-11-05T06:20:19.775Z,13.83
2022-11-05T06:21:21.342Z,13.74
2022-11-05T06:22:22.857Z,13.66
2022-11-05T06:23:24.451Z,13.66
2022-11-05T06:24:25.999Z,13.65
2022-11-05T06:25:27.557Z,13.71
2022-11-05T06:26:29.489Z,13.62
2022-11-05T06:27:31.401Z,13.50
2022-11-05T06:28:33.615Z,13.52
2022-11-05T06:29:35.115Z,13.73
2022-11-05T06:30:36.631Z,13.87
2022-11-05T06:31:38.409Z,13.98
2022-11-05T06:32:40.021Z,14.11
2022-11-05T06:33:41.742Z,14.25
2022-11-05T06:34:43.290Z,14.39
2022-11-05T06:35:44.792Z,14.48
2022-11-05T06:36:46.338Z,14.60
2022-11-05T06:37:47.852Z,14.71
2022-11-05T06:38:49.494Z,14.75
2022-11-05T06:39:51.058Z,14.76
2022-11-05T06:40:52.595Z,14.78
2022-11-05T06:42:17.465Z,14.85
2022-11-05T06:43:15.646Z,14.86
2022-11-05T06:44:17.296Z,14.84
2022-11-05T06:45:19.046Z,14.83
2022-11-05T06:46:20.669Z,14.69
2022-11-05T06:47:22.308Z,14.70
2022-11-05T06:48:25.471Z,14.79
2022-11-05T06:49:27.069Z,14.76
2022-11-05T06:50:29.000Z,14.79
2022-11-05T06:51:30.574Z,14.91
2022-11-05T06:52:34.809Z,15.05
2022-11-05T06:53:51.699Z,15.18
2022-11-05T06:54:53.388Z,15.16
2022-11-05T06:55:55.068Z,15.24
2022-11-05T06:56:56.659Z,15.31
2022-11-05T06:57:58.274Z,15.17
2022-11-05T06:58:59.850Z,15.19
2022-11-05T07:00:05.760Z,15.25
2022-11-05T07:01:10.519Z,15.22
2022-11-05T07:02:13.568Z,15.24
2022-11-05T07:03:15.449Z,15.31
2022-11-05T07:04:17.133Z,15.37
2022-11-05T07:05:18.731Z,15.39
2022-11-05T07:06:22.138Z,15.35
2022-11-05T07:07:23.684Z,15.27
2022-11-05T07:08:25.326Z,15.39
2022-11-05T07:09:28.458Z,15.39
2022-11-05T07:10:30.059Z,15.37
2022-11-05T07:11:31.800Z,15.35
2022-11-05T07:12:33.403Z,15.43
2022-11-05T07:13:34.983Z,15.61
2022-11-05T07:14:36.585Z,15.62
2022-11-05T07:15:38.527Z,15.61
2022-11-05T07:16:40.132Z,15.73
2022-11-05T07:17:41.991Z,15.87
2022-11-05T07:18:43.834Z,15.96
2022-11-05T07:19:45.370Z,16.06
2022-11-05T07:20:46.978Z,16.21
2022-11-05T07:21:48.806Z,16.14
2022-11-05T07:22:50.366Z,16.14
2022-11-05T07:23:51.983Z,16.25
2022-11-05T07:24:53.516Z,16.35
2022-11-05T07:25:55.081Z,16.42
2022-11-05T07:26:56.615Z,16.55
2022-11-05T07:27:58.589Z,16.67
2022-11-05T07:29:00.138Z,16.70
2022-11-05T07:30:06.636Z,16.81
2022-11-05T07:31:08.185Z,16.95
2022-11-05T07:32:09.879Z,17.10
2022-11-05T07:33:11.997Z,17.19
2022-11-05T07:34:13.791Z,17.24
2022-11-05T07:35:15.348Z,17.32
2022-11-05T07:36:16.871Z,17.42
2022-11-05T07:37:18.442Z,17.45
2022-11-05T07:38:19.956Z,17.50
2022-11-05T07:39:21.618Z,17.54
2022-11-05T07:40:26.210Z,17.66
2022-11-05T07:41:30.754Z,17.63
2022-11-05T07:42:35.281Z,17.70
2022-11-05T07:43:36.830Z,17.68
2022-11-05T07:44:38.349Z,17.69
2022-11-05T07:45:39.886Z,17.74
2022-11-05T07:46:42.028Z,17.78
2022-11-05T07:47:52.298Z,17.77
2022-11-05T07:48:53.837Z,17.90
2022-11-05T07:49:55.377Z,17.95
2022-11-05T07:50:56.925Z,17.93
2022-11-05T07:51:58.668Z,17.86
2022-11-05T07:53:02.232Z,17.82
2022-11-05T07:54:03.963Z,17.83
2022-11-05T07:55:06.105Z,17.85
2022-11-05T07:56:08.554Z,17.87
2022-11-05T07:57:10.268Z,17.82
2022-11-05T07:58:11.942Z,17.74
2022-11-05T07:59:13.478Z,17.71
2022-11-05T08:00:18.031Z,17.74
2022-11-05T08:01:19.731Z,17.78
2022-11-05T08:02:21.705Z,17.75
2022-11-05T08:03:23.564Z,17.76
2022-11-05T08:04:25.264Z,17.56
2022-11-05T08:05:27.800Z,17.52
2022-11-05T08:06:29.323Z,17.66
2022-11-05T08:07:30.859Z,17.83
2022-11-05T08:08:32.789Z,17.96
2022-11-05T08:09:34.601Z,18.04
2022-11-05T08:10:37.055Z,18.22
2022-11-05T08:11:38.565Z,18.21
2022-11-05T08:12:40.073Z,18.26
2022-11-05T08:13:42.856Z,18.23
2022-11-05T08:14:44.408Z,18.32
2022-11-05T08:15:45.925Z,18.23
2022-11-05T08:16:49.344Z,18.21
2022-11-05T08:17:58.078Z,18.12
2022-11-05T08:18:59.646Z,18.08
2022-11-05T08:20:01.238Z,18.15
2022-11-05T08:21:04.472Z,18.16
2022-11-05T08:22:06.004Z,18.10
2022-11-05T08:23:08.004Z,17.94
2022-11-05T08:24:09.841Z,17.77
2022-11-05T08:25:13.023Z,17.62
2022-11-05T08:26:14.624Z,17.38
2022-11-05T08:27:16.237Z,17.25
2022-11-05T08:28:17.920Z,17.19
2022-11-05T08:29:19.451Z,17.12
2022-11-05T08:30:20.981Z,17.11
2022-11-05T08:31:22.527Z,17.10
2022-11-05T08:32:24.041Z,17.08
2022-11-05T08:33:26.290Z,17.21
2022-11-05T08:34:27.807Z,17.27
2022-11-05T08:35:29.797Z,17.27
2022-11-05T08:36:31.360Z,17.20
2022-11-05T08:37:32.880Z,17.19
2022-11-05T08:38:34.460Z,17.20
2022-11-05T08:39:35.987Z,17.22
2022-11-05T08:40:37.783Z,17.21
2022-11-05T08:41:40.614Z,17.26
2022-11-05T08:42:42.131Z,17.24
2022-11-05T08:43:43.638Z,17.29
2022-11-05T08:44:45.236Z,17.35
2022-11-05T08:45:46.919Z,17.27
2022-11-05T08:46:48.603Z,17.26
2022-11-05T08:47:50.462Z,17.26
2022-11-05T08:48:52.043Z,17.27
2022-11-05T08:49:54.614Z,17.36
2022-11-05T08:50:56.170Z,17.35
2022-11-05T08:51:58.004Z,17.40
2022-11-05T08:52:59.695Z,17.52
2022-11-05T08:54:01.318Z,17.59
2022-11-05T08:55:02.847Z,17.69
2022-11-05T08:56:04.521Z,17.79
2022-11-05T08:57:06.041Z,17.93
2022-11-05T08:58:12.554Z,18.05
2022-11-05T08:59:14.356Z,18.22
2022-11-05T09:00:16.362Z,18.38
2022-11-05T09:01:18.053Z,18.54
2022-11-05T09:02:19.732Z,18.62
2022-11-05T09:03:21.391Z,18.72
2022-11-05T09:04:23.193Z,18.83
2022-11-05T09:05:24.718Z,18.91
2022-11-05T09:06:26.259Z,18.83
2022-11-05T09:07:27.802Z,18.68
2022-11-05T09:08:29.456Z,18.76
2022-11-05T09:09:31.070Z,18.84
2022-11-05T09:10:32.835Z,18.76
2022-11-05T09:12:05.317Z,18.88
2022-11-05T09:12:56.502Z,18.98
2022-11-05T09:13:58.057Z,19.05
2022-11-05T09:14:59.565Z,19.11
2022-11-05T09:16:02.032Z,19.12
2022-11-05T09:17:03.697Z,19.16
2022-11-05T09:18:05.698Z,19.23
2022-11-05T09:19:07.207Z,19.05
2022-11-05T09:20:10.968Z,18.97
2022-11-05T09:21:12.635Z,18.91
2022-11-05T09:22:14.538Z,18.96
2022-11-05T09:23:16.255Z,18.99
2022-11-05T09:24:17.805Z,18.91
2022-11-05T09:25:19.361Z,18.99
2022-11-05T09:26:20.897Z,19.10
2022-11-05T09:27:22.560Z,19.11
2022-11-05T09:28:25.516Z,19.12
2022-11-05T09:29:27.051Z,19.20
2022-11-05T09:30:28.567Z,19.28
2022-11-05T09:31:30.121Z,19.30
2022-11-05T09:32:32.497Z,19.28
2022-11-05T09:33:35.619Z,19.25
2022-11-05T09:34:37.141Z,19.22
2022-11-05T09:35:40.207Z,19.17
2022-11-05T09:36:41.770Z,19.20
2022-11-05T09:37:45.994Z,19.33
2022-11-05T09:38:47.585Z,19.38
2022-11-05T09:39:49.179Z,19.39
2022-11-05T09:41:02.634Z,19.47
2022-11-05T09:42:08.469Z,19.40
2022-11-05T09:43:18.858Z,19.40
2022-11-05T09:44:23.807Z,19.45
2022-11-05T09:45:28.459Z,19.50
2022-11-05T09:47:01.639Z,19.45
2022-11-05T09:48:14.825Z,19.32
2022-11-05T09:49:39.966Z,19.26
2022-11-05T09:50:45.246Z,19.22
2022-11-05T09:51:46.854Z,19.11
2022-11-05T09:52:48.444Z,19.04
2022-11-05T09:53:50.792Z,18.91
2022-11-05T09:54:53.273Z,18.94
2022-11-05T09:55:58.707Z,18.96
2022-11-05T09:57:02.761Z,19.03
2022-11-05T09:58:14.708Z,19.05
2022-11-05T09:59:18.138Z,19.11
2022-11-05T10:00:20.128Z,19.18
2022-11-05T10:01:26.137Z,19.11
2022-11-05T10:02:38.677Z,19.12
2022-11-05T10:03:46.550Z,19.14
2022-11-05T10:04:53.162Z,18.96
2022-11-05T10:06:03.569Z,18.89
2022-11-05T10:07:07.614Z,18.97
2022-11-05T10:08:22.389Z,18.90
2022-11-05T10:09:31.466Z,18.99
2022-11-05T10:10:41.085Z,19.06
2022-11-05T10:11:50.702Z,19.07
2022-11-05T10:12:56.141Z,19.03
2022-11-05T10:14:06.169Z,19.04
2022-11-05T10:15:17.134Z,19.08
2022-11-05T10:16:35.165Z,19.12
2022-11-05T10:17:40.162Z,19.04
2022-11-05T10:18:47.447Z,18.98
2022-11-05T10:20:02.662Z,18.95
2022-11-05T10:21:05.483Z,19.05
2022-11-05T10:22:13.664Z,19.11
2022-11-05T10:23:18.131Z,19.08
2022-11-05T10:24:21.341Z,19.20
2022-11-05T10:25:27.477Z,19.16
2022-11-05T10:26:29.893Z,19.18
2022-11-05T10:27:35.750Z,19.13
2022-11-05T10:28:37.498Z,19.07
2022-11-05T10:29:39.074Z,19.14
2022-11-05T10:30:40.610Z,19.08
2022-11-05T10:31:43.214Z,19.06
2022-11-05T10:32:46.439Z,19.08
2022-11-05T10:34:00.332Z,19.14
2022-11-05T10:35:05.263Z,19.18
2022-11-05T10:36:11.656Z,19.06
2022-11-05T10:37:13.271Z,19.10
2022-11-05T10:38:15.316Z,19.14
2022-11-05T10:39:19.488Z,19.16
2022-11-05T10:40:29.943Z,19.36
2022-11-05T10:41:44.353Z,19.35
2022-11-05T10:43:02.365Z,19.27
2022-11-05T10:44:19.047Z,19.30
2022-11-05T10:45:31.546Z,19.21
2022-11-05T10:46:53.305Z,19.20
2022-11-05T10:48:22.541Z,19.24
2022-11-05T10:49:36.225Z,19.31
2022-11-05T10:50:39.393Z,19.23
2022-11-05T10:51:40.944Z,19.33
2022-11-05T10:52:55.787Z,19.37
2022-11-05T10:54:03.617Z,19.42
2022-11-05T10:55:16.334Z,19.40
2022-11-05T10:56:32.107Z,19.36
2022-11-05T10:57:39.459Z,19.36
2022-11-05T10:58:54.916Z,19.32
2022-11-05T11:00:22.269Z,19.27
2022-11-05T11:01:26.234Z,19.29
2022-11-05T11:02:30.291Z,19.37
2022-11-05T11:03:46.854Z,19.39
2022-11-05T11:04:53.681Z,19.34
2022-11-05T11:06:04.819Z,19.35
2022-11-05T11:07:21.414Z,19.46
2022-11-05T11:08:24.951Z,19.54
2022-11-05T11:09:36.435Z,19.44
2022-11-05T11:10:48.855Z,19.42
2022-11-05T11:12:02.613Z,19.38
2022-11-05T11:13:05.738Z,19.42
2022-11-05T11:14:11.798Z,19.43
2022-11-05T11:15:33.601Z,19.42
2022-11-05T11:16:38.480Z,19.45
2022-11-05T11:17:40.029Z,19.52
2022-11-05T11:18:43.742Z,19.47
2022-11-05T11:19:45.426Z,19.46
2022-11-05T11:20:47.003Z,19.43
2022-11-05T11:22:13.028Z,19.43
2022-11-05T11:23:16.903Z,19.43
2022-11-05T11:24:23.294Z,19.47
2022-11-05T11:25:27.002Z,19.49
2022-11-05T11:26:39.310Z,19.60
2022-11-05T11:27:40.942Z,19.61
2022-11-05T11:29:08.385Z,19.52
2022-11-05T11:30:17.924Z,19.49
2022-11-05T11:31:25.316Z,19.40
2022-11-05T11:32:33.243Z,19.37
2022-11-05T11:33:37.837Z,19.38
2022-11-05T11:34:40.625Z,19.34
2022-11-05T11:35:46.308Z,19.29
2022-11-05T11:36:53.679Z,19.30
2022-11-05T11:37:57.147Z,19.36
2022-11-05T11:39:01.133Z,19.40
2022-11-05T11:40:21.482Z,19.36
2022-11-05T11:41:27.255Z,19.32
2022-11-05T11:42:36.163Z,19.25
2022-11-05T11:43:41.256Z,19.25
2022-11-05T11:44:46.126Z,19.18
2022-11-05T11:45:53.787Z,19.29
2022-11-05T11:47:10.926Z,19.26
2022-11-05T11:48:22.874Z,19.36
2022-11-05T11:49:46.375Z,19.26
2022-11-05T11:50:49.322Z,19.35
2022-11-05T11:51:59.725Z,19.37
2022-11-05T11:53:30.377Z,19.40
2022-11-05T11:54:34.822Z,19.40
2022-11-05T11:55:36.452Z,19.33
2022-11-05T11:56:46.317Z,19.36
2022-11-05T11:57:50.967Z,19.39
2022-11-05T11:58:57.462Z,19.45
2022-11-05T12:00:08.888Z,19.47
2022-11-05T12:01:28.793Z,19.39
2022-11-05T12:02:40.560Z,19.34
2022-11-05T12:03:51.220Z,19.36
2022-11-05T12:05:26.914Z,19.36
2022-11-05T12:06:54.195Z,19.26
2022-11-05T12:08:01.504Z,19.27
2022-11-05T12:09:35.081Z,19.36
2022-11-05T12:10:53.474Z,19.55
2022-11-05T12:11:59.432Z,19.60
2022-11-05T12:13:14.644Z,19.65
2022-11-05T12:15:02.818Z,19.58
2022-11-05T12:16:33.910Z,19.45
2022-11-05T12:18:01.266Z,19.40
2022-11-05T12:19:05.388Z,19.44
2022-11-05T12:20:15.880Z,19.48
2022-11-05T12:21:52.139Z,19.46
2022-11-05T12:23:19.950Z,19.46
2022-11-05T12:24:21.877Z,19.35
2022-11-05T12:25:34.047Z,19.29
2022-11-05T12:26:54.860Z,19.23
2022-11-05T12:28:24.251Z,19.26
2022-11-05T12:29:38.564Z,19.32
2022-11-05T12:30:46.254Z,19.27
2022-11-05T12:31:56.912Z,19.34
2022-11-05T12:33:21.731Z,19.31
2022-11-05T12:34:29.165Z,19.39
2022-11-05T12:35:48.854Z,19.45
2022-11-05T12:37:02.090Z,19.47
2022-11-05T12:38:31.815Z,19.40
2022-11-05T12:39:54.116Z,19.48
2022-11-05T12:41:10.797Z,19.44
2022-11-05T12:42:29.465Z,19.47
2022-11-05T12:44:09.285Z,19.61
2022-11-05T12:45:19.639Z,19.57
2022-11-05T12:46:53.335Z,19.52
2022-11-05T12:47:57.608Z,19.47
2022-11-05T12:49:01.784Z,19.52
2022-11-05T12:50:27.725Z,19.54
2022-11-05T12:51:50.163Z,19.51
2022-11-05T12:53:13.263Z,19.47
2022-11-05T12:54:21.044Z,19.42
2022-11-05T12:55:25.411Z,19.40
2022-11-05T12:56:41.362Z,19.43
2022-11-05T12:57:47.667Z,19.54
2022-11-05T12:59:01.211Z,19.52
2022-11-05T13:00:27.027Z,19.40
2022-11-05T13:01:36.914Z,19.46
2022-11-05T13:02:49.099Z,19.45
2022-11-05T13:04:01.538Z,19.40
2022-11-05T13:05:33.430Z,19.44
2022-11-05T13:06:40.393Z,19.43
2022-11-05T13:07:53.281Z,19.33
2022-11-05T13:09:04.365Z,19.43
2022-11-05T13:10:23.455Z,19.44
2022-11-05T13:12:02.028Z,19.38
2022-11-05T13:13:18.832Z,19.34
2022-11-05T13:14:28.278Z,19.33
2022-11-05T13:15:37.366Z,19.32
2022-11-05T13:16:46.209Z,19.36
2022-11-05T13:17:52.861Z,19.45
2022-11-05T13:19:19.159Z,19.46
2022-11-05T13:20:24.463Z,19.40
2022-11-05T13:21:29.523Z,19.32
2022-11-05T13:22:46.714Z,19.34
2022-11-05T13:23:54.816Z,19.34
2022-11-05T13:25:01.091Z,19.38
2022-11-05T13:26:11.788Z,19.34
2022-11-05T13:27:19.027Z,19.37
2022-11-05T13:28:23.298Z,19.37
2022-11-05T13:29:35.282Z,19.39
2022-11-05T13:30:42.384Z,19.41
2022-11-05T13:31:51.708Z,19.46
2022-11-05T13:33:00.104Z,19.51
2022-11-05T13:34:06.860Z,19.53
2022-11-05T13:35:19.515Z,19.56
2022-11-05T13:36:47.443Z,19.51
2022-11-05T13:38:14.780Z,19.49
2022-11-05T13:39:26.195Z,19.40
2022-11-05T13:41:24.639Z,19.36
2022-11-05T13:42:55.358Z,19.47
2022-11-05T13:44:34.308Z,19.39
2022-11-05T13:45:53.860Z,19.38
2022-11-05T13:47:22.905Z,19.39
2022-11-05T13:48:32.230Z,19.39
2022-11-05T13:49:41.276Z,19.33
2022-11-05T13:51:24.223Z,19.27
2022-11-05T13:52:37.965Z,19.31
2022-11-05T13:53:42.835Z,19.36
2022-11-05T13:55:08.216Z,19.40
2022-11-05T13:56:54.352Z,19.34
2022-11-05T13:58:01.942Z,19.30
2022-11-05T13:59:18.739Z,19.35
2022-11-05T14:00:23.199Z,19.38
2022-11-05T14:01:27.381Z,19.34
2022-11-05T14:02:55.525Z,19.37
2022-11-05T14:03:57.363Z,19.23
2022-11-05T14:05:01.981Z,19.29
2022-11-05T14:06:06.859Z,19.30
2022-11-05T14:07:24.882Z,19.19
2022-11-05T14:08:29.690Z,19.20
2022-11-05T14:09:35.602Z,19.15
2022-11-05T14:10:38.818Z,19.23
2022-11-05T14:11:43.999Z,19.24
2022-11-05T14:12:52.747Z,19.30
2022-11-05T14:13:58.746Z,19.32
2022-11-05T14:15:08.619Z,19.29
2022-11-05T14:16:16.346Z,19.23
2022-11-05T14:17:28.270Z,19.29
2022-11-05T14:18:38.950Z,19.22
2022-11-05T14:20:06.860Z,19.22
2022-11-05T14:21:26.542Z,19.13
2022-11-05T14:22:33.771Z,19.06
2022-11-05T14:23:40.879Z,19.02
2022-11-05T14:24:44.238Z,19.03
2022-11-05T14:25:45.717Z,19.03
2022-11-05T14:27:02.726Z,19.01
2022-11-05T14:28:37.782Z,18.96
2022-11-05T14:29:43.532Z,18.94
2022-11-05T14:30:47.234Z,18.92
2022-11-05T14:32:08.498Z,18.93
2022-11-05T14:33:24.315Z,18.88
2022-11-05T14:35:04.147Z,18.84